メインページ
METAR-TAF:

METAR-TAF

空港 :

フェアバンクス, アラスカ州, アメリカ合衆国

フェアバンクス国際空港

緯度: 64-48-14N, 経度: 147-52-34W, 海抜: 132m

現時点の気象観測

当レポートは1時間0分前の10:53(UTC)に作成
の風 10kt
気温 2°C
湿度 47%
気圧 1009 hPa
視程: 16.1km
高度20000ftの雲は散在している

METAR: PAFA 231053Z 36010KT 10SM SCT200 02/M08 A2981 RMK AO2 SLP100 T00221083 VISNO NE

時間: 03:53 (11:53 UTC)

予報

当レポートは12分前の11:41(UTC)に作成
予報は23日の 12時(UTC)から 24日の 18時(UTC)まで有効
の風 10kt
視程: 10km
高度20000ftの雲は散在している
23日の 2000時(UTC)から
東/北東の風 8kt
視程: 10km
高度16000ftの千切れ雲あり

TAF: PAFA 231141Z 2312/2418 01010KT P6SM SCT200 FM232000 07008KT P6SM BKN160

4,000以上の空港の気象観測と天気予報(METAR報とTAF報)

利用可能な観測所は地図上に黄色い丸と赤い丸で示す。

丸の上にカーソルを重ねると観測所名を参照できる。

次にクリックすると気象観測と天気予報を参照できる。

マップの切り替え:黒色「×」印の緑ボタンをクリックして拡大、「-」印の緑ボタンをクリックして縮小、緑色の三角印をクリックして隣りの地図に切り替え


METAR-TAF: